Time;durP1;ratioP1;P1;durP2;ratioP2;P2;SDS_P1;SDS_P2;PMS_P1;PMS_P2;Temp;Humidity;BMP_temperature;BMP_pressure;BME280_temperature;BME280_humidity;BME280_pressure;Samples;Min_cycle;Max_cycle;Signal;HPM_P1;HPM_P2
2021/10/01 00:01:33;;;;;;;9.18;4.57;;;8.90;99.90;;;;;;5055581;28;20278;-73
2021/10/01 00:03:59;;;;;;;5.90;3.55;;;8.80;99.90;;;;;;5054831;28;20087;-74
2021/10/01 00:06:24;;;;;;;8.27;4.15;;;8.80;99.90;;;;;;5054967;28;20428;-74
2021/10/01 00:08:50;;;;;;;6.43;4.30;;;8.80;99.90;;;;;;5054495;28;20112;-74
2021/10/01 00:11:16;;;;;;;7.13;4.40;;;8.80;99.90;;;;;;5054986;28;20017;-73
2021/10/01 00:13:41;;;;;;;10.70;4.68;;;8.80;99.90;;;;;;5055057;28;20473;-74
2021/10/01 00:16:07;;;;;;;8.07;4.78;;;8.70;99.90;;;;;;5055047;28;20059;-73
2021/10/01 00:18:33;;;;;;;6.65;4.20;;;8.70;99.90;;;;;;5054829;28;20032;-73
2021/10/01 00:20:58;;;;;;;6.40;4.57;;;8.70;99.90;;;;;;5054816;28;20036;-73
2021/10/01 00:23:24;;;;;;;7.55;4.00;;;8.70;99.90;;;;;;5054445;28;20061;-74
2021/10/01 00:25:50;;;;;;;8.13;4.20;;;8.70;99.90;;;;;;5054461;28;20097;-73
2021/10/01 00:28:16;;;;;;;7.45;3.90;;;8.70;99.90;;;;;;5053675;28;20389;-74
2021/10/01 00:30:42;;;;;;;9.93;4.70;;;8.60;99.90;;;;;;5056353;28;20021;-74
2021/10/01 00:33:08;;;;;;;4.97;3.80;;;8.60;99.90;;;;;;5057081;28;20035;-74
2021/10/01 00:35:33;;;;;;;8.05;4.68;;;8.60;99.90;;;;;;5057948;28;20025;-74
2021/10/01 00:37:59;;;;;;;7.72;3.95;;;8.60;99.90;;;;;;5066021;28;20055;-73
2021/10/01 00:40:26;;;;;;;5.00;3.47;;;8.60;99.90;;;;;;5079263;28;20029;-72
2021/10/01 00:42:52;;;;;;;7.85;4.55;;;8.60;99.90;;;;;;5065685;28;20032;-73
2021/10/01 00:45:17;;;;;;;10.27;5.30;;;8.60;99.90;;;;;;5058080;28;20025;-73
2021/10/01 00:47:43;;;;;;;8.77;4.43;;;8.60;99.90;;;;;;5055459;28;20025;-72
2021/10/01 00:50:09;;;;;;;7.15;4.40;;;8.80;99.90;;;;;;5055550;28;20061;-72
2021/10/01 00:52:35;;;;;;;5.72;3.65;;;8.90;99.90;;;;;;5054356;28;20021;-72
2021/10/01 00:55:02;;;;;;;7.35;3.58;;;8.90;99.90;;;;;;5054923;28;20044;-74
2021/10/01 00:57:28;;;;;;;6.95;3.97;;;8.70;99.90;;;;;;5053862;28;20046;-73
2021/10/01 00:59:53;;;;;;;7.65;3.70;;;8.70;99.90;;;;;;5052574;28;20485;-72
2021/10/01 01:02:19;;;;;;;10.00;4.70;;;8.60;99.90;;;;;;5053743;28;20040;-73
2021/10/01 01:04:45;;;;;;;7.40;3.40;;;8.50;99.90;;;;;;5053632;28;20239;-73
2021/10/01 01:07:23;;;;;;;8.65;4.22;;;8.50;99.90;;;;;;5053317;28;20021;-73
2021/10/01 01:10:02;;;;;;;4.57;2.92;;;8.50;99.90;;;;;;5053532;28;20037;-73
2021/10/01 01:12:34;;;;;;;7.00;3.60;;;8.50;99.90;;;;;;5053616;28;20104;-72
2021/10/01 01:15:22;;;;;;;6.55;3.72;;;8.50;99.90;;;;;;5053513;28;20116;-72
2021/10/01 01:18:15;;;;;;;4.20;2.67;;;8.40;99.90;;;;;;5053518;28;20013;-74
2021/10/01 01:20:52;;;;;;;6.47;3.28;;;8.40;99.90;;;;;;5052200;28;20443;-72
2021/10/01 01:23:54;;;;;;;8.88;3.35;;;8.40;99.90;;;;;;5053628;28;20036;-73
2021/10/01 01:26:41;;;;;;;8.30;3.75;;;8.40;99.90;;;;;;5053655;28;20100;-73
2021/10/01 01:29:38;;;;;;;7.20;3.20;;;8.30;99.90;;;;;;5053271;28;20108;-72
2021/10/01 01:32:22;;;;;;;5.43;3.17;;;8.30;99.90;;;;;;5053576;28;20021;-72
2021/10/01 01:34:51;;;;;;;6.50;3.75;;;8.30;99.90;;;;;;5052339;28;20062;-72
2021/10/01 01:37:24;;;;;;;5.45;4.07;;;8.30;99.90;;;;;;5054132;28;20032;-73
2021/10/01 01:39:51;;;;;;;6.47;3.47;;;8.30;99.90;;;;;;5051719;28;20039;-74
2021/10/01 01:42:18;;;;;;;4.72;3.17;;;8.20;99.90;;;;;;5053140;28;20021;-73
2021/10/01 01:44:45;;;;;;;6.35;3.42;;;8.10;99.90;;;;;;5052032;28;20033;-72
2021/10/01 01:47:12;;;;;;;7.53;3.22;;;8.10;99.90;;;;;;5058735;28;20100;-72
2021/10/01 01:49:38;;;;;;;8.10;3.38;;;8.10;99.90;;;;;;5053291;28;20036;-73
2021/10/01 01:52:06;;;;;;;7.70;4.15;;;8.20;99.90;;;;;;5053130;28;20052;-73
2021/10/01 01:54:33;;;;;;;7.43;3.78;;;8.10;99.90;;;;;;5053127;28;20388;-73
2021/10/01 01:57:00;;;;;;;9.15;3.63;;;8.20;99.90;;;;;;5052199;28;20104;-73
2021/10/01 01:59:27;;;;;;;6.68;3.35;;;8.10;99.90;;;;;;5053506;28;20063;-73
2021/10/01 02:01:54;;;;;;;8.73;5.00;;;8.10;99.90;;;;;;5066904;28;20031;-73
2021/10/01 02:04:22;;;;;;;7.45;3.40;;;8.10;99.90;;;;;;5059706;28;20387;-73
2021/10/01 02:06:48;;;;;;;7.22;3.85;;;8.10;99.90;;;;;;5054681;28;20021;-72
2021/10/01 02:09:16;;;;;;;12.93;3.85;;;8.00;99.90;;;;;;5054365;28;20029;-74
2021/10/01 02:11:44;;;;;;;8.30;3.78;;;8.00;99.90;;;;;;5054480;28;20021;-73
2021/10/01 02:14:11;;;;;;;7.38;4.13;;;7.90;99.90;;;;;;5053604;28;20033;-72
2021/10/01 02:16:39;;;;;;;8.18;3.10;;;7.90;99.90;;;;;;5053694;28;20491;-72
2021/10/01 02:19:06;;;;;;;8.02;3.53;;;8.00;99.90;;;;;;5053421;28;20120;-73
2021/10/01 02:21:33;;;;;;;8.13;3.53;;;8.00;99.90;;;;;;5053210;28;20029;-73
2021/10/01 02:23:58;;;;;;;5.57;3.70;;;8.00;99.90;;;;;;5051870;28;20025;-72
2021/10/01 02:26:34;;;;;;;4.95;3.65;;;8.00;99.90;;;;;;5052623;28;20071;-73
2021/10/01 02:29:25;;;;;;;5.97;3.10;;;8.00;99.90;;;;;;5053066;28;20055;-73
2021/10/01 02:31:53;;;;;;;;;;;7.90;99.90;;;;;;5053954;28;20025;-72
2021/10/01 02:34:27;;;;;;;3.03;2.75;;;7.90;99.90;;;;;;5053795;28;20629;-73
2021/10/01 02:36:52;;;;;;;5.80;2.92;;;7.90;99.90;;;;;;5053365;28;20032;-73
2021/10/01 02:39:18;;;;;;;7.68;3.15;;;7.90;99.90;;;;;;5057776;28;20025;-73
2021/10/01 02:41:44;;;;;;;8.02;3.25;;;7.90;99.90;;;;;;5055066;28;20032;-73
2021/10/01 02:44:09;;;;;;;4.95;2.67;;;7.90;99.90;;;;;;5053546;28;20079;-73
2021/10/01 02:46:35;;;;;;;5.00;2.92;;;7.90;99.90;;;;;;5051625;28;20531;-73
2021/10/01 02:49:01;;;;;;;7.18;3.03;;;7.80;99.90;;;;;;5053801;28;20064;-72
2021/10/01 02:51:31;;;;;;;6.05;2.92;;;7.80;99.90;;;;;;5069373;28;20025;-72
2021/10/01 02:54:07;;;;;;;4.22;2.45;;;7.80;99.90;;;;;;5076741;28;20009;-72
2021/10/01 02:56:38;;;;;;;4.68;3.17;;;7.80;99.90;;;;;;5076935;28;20372;-72
2021/10/01 02:59:05;;;;;;;4.95;3.63;;;7.80;99.90;;;;;;5080260;28;20021;-72
2021/10/01 03:01:32;;;;;;;4.05;2.55;;;7.90;99.90;;;;;;5081291;28;20021;-72
2021/10/01 03:04:02;;;;;;;3.67;3.03;;;7.90;99.90;;;;;;5080542;28;20028;-73
2021/10/01 03:06:34;;;;;;;5.63;2.30;;;7.90;99.90;;;;;;5076679;28;20028;-72
2021/10/01 03:09:00;;;;;;;3.75;2.80;;;7.80;99.90;;;;;;5078385;28;20044;-72
2021/10/01 03:11:30;;;;;;;5.05;2.97;;;7.80;99.90;;;;;;5078591;28;20028;-72
2021/10/01 03:13:57;;;;;;;3.75;2.35;;;7.80;99.90;;;;;;5089185;22;20065;-72
2021/10/01 03:16:25;;;;;;;4.40;2.63;;;7.80;99.90;;;;;;5055935;28;20039;-73
2021/10/01 03:18:53;;;;;;;4.63;2.90;;;7.80;99.90;;;;;;5056158;28;20531;-71
2021/10/01 03:21:20;;;;;;;5.35;2.50;;;7.80;99.90;;;;;;5056491;28;20079;-73
2021/10/01 03:23:47;;;;;;;3.78;2.58;;;7.80;99.90;;;;;;5056165;28;20070;-73
2021/10/01 03:26:13;;;;;;;5.72;2.72;;;7.70;99.90;;;;;;5056209;28;20024;-73
2021/10/01 03:28:40;;;;;;;4.47;2.70;;;7.70;99.90;;;;;;5055933;28;20021;-73
2021/10/01 03:31:06;;;;;;;8.27;3.30;;;7.80;99.90;;;;;;5056368;28;20021;-73
2021/10/01 03:33:32;;;;;;;4.88;2.90;;;7.70;99.90;;;;;;5056125;28;20326;-73
2021/10/01 03:35:59;;;;;;;6.63;2.97;;;7.60;99.90;;;;;;5056165;28;20032;-73
2021/10/01 03:38:25;;;;;;;4.00;3.28;;;7.60;99.90;;;;;;5056390;28;20021;-74
2021/10/01 03:40:51;;;;;;;7.55;3.58;;;7.60;99.90;;;;;;5056360;28;20119;-73
2021/10/01 03:43:17;;;;;;;3.88;2.80;;;7.60;99.90;;;;;;5056028;28;20028;-73
2021/10/01 03:45:43;;;;;;;8.88;2.80;;;7.50;99.90;;;;;;5055272;28;20473;-74
2021/10/01 03:48:09;;;;;;;5.50;2.55;;;7.50;99.90;;;;;;5055195;28;20076;-72
2021/10/01 03:50:37;;;;;;;5.70;3.13;;;7.50;99.90;;;;;;5055290;28;20079;-72
2021/10/01 03:53:03;;;;;;;6.15;3.42;;;7.50;99.90;;;;;;5055143;28;20024;-72
2021/10/01 03:55:31;;;;;;;4.57;2.83;;;7.50;99.90;;;;;;5054197;28;20025;-73
2021/10/01 03:57:57;;;;;;;5.38;3.25;;;7.40;99.90;;;;;;5055250;28;20049;-73
2021/10/01 04:00:22;;;;;;;5.78;3.60;;;7.40;99.90;;;;;;5054695;28;20028;-73
2021/10/01 04:02:48;;;;;;;6.45;3.70;;;7.40;99.90;;;;;;5054458;28;20020;-73
2021/10/01 04:05:14;;;;;;;8.05;3.72;;;7.40;99.90;;;;;;5053374;28;20021;-72
2021/10/01 04:07:39;;;;;;;7.20;3.33;;;7.40;99.90;;;;;;5054425;28;20075;-72
2021/10/01 04:10:06;;;;;;;13.00;3.47;;;7.40;99.90;;;;;;5054878;28;20020;-73
2021/10/01 04:12:32;;;;;;;7.82;3.13;;;7.40;99.90;;;;;;5054729;28;20147;-72
2021/10/01 04:14:58;;;;;;;7.68;3.38;;;7.40;99.90;;;;;;5054584;28;20047;-72
2021/10/01 04:17:23;;;;;;;6.75;3.08;;;7.30;99.90;;;;;;5054664;28;20500;-72
2021/10/01 04:19:49;;;;;;;5.00;2.67;;;7.30;99.90;;;;;;5054665;28;20051;-73
2021/10/01 04:22:16;;;;;;;9.30;3.17;;;7.20;99.90;;;;;;5054766;28;20035;-73
2021/10/01 04:24:41;;;;;;;4.47;2.88;;;7.20;99.90;;;;;;5054344;28;20124;-73
2021/10/01 04:27:07;;;;;;;6.03;2.42;;;7.20;99.90;;;;;;5054378;28;20065;-73
2021/10/01 04:29:33;;;;;;;4.05;2.55;;;7.20;99.90;;;;;;5054453;28;20112;-72
2021/10/01 04:32:01;;;;;;;4.50;2.97;;;7.20;99.90;;;;;;5054273;28;20025;-73
2021/10/01 04:34:29;;;;;;;6.53;2.63;;;7.20;99.90;;;;;;5054265;28;20039;-71
2021/10/01 04:36:54;;;;;;;5.78;2.78;;;7.20;99.90;;;;;;5054350;28;20024;-72
2021/10/01 04:39:20;;;;;;;9.77;4.65;;;7.20;99.90;;;;;;5054071;28;20025;-72
2021/10/01 04:41:45;;;;;;;12.63;6.63;;;7.10;99.90;;;;;;5053058;28;20069;-72
2021/10/01 04:44:11;;;;;;;10.70;7.80;;;7.10;99.90;;;;;;5054108;28;20025;-72
2021/10/01 04:46:37;;;;;;;9.15;4.18;;;7.20;99.90;;;;;;5053961;28;20029;-73
2021/10/01 04:49:02;;;;;;;15.00;4.90;;;7.10;99.90;;;;;;5053826;28;20047;-72
2021/10/01 04:51:28;;;;;;;9.85;5.43;;;7.10;99.90;;;;;;5054158;28;20124;-75
2021/10/01 04:53:54;;;;;;;9.48;3.70;;;7.10;99.90;;;;;;5053930;28;20024;-72
2021/10/01 04:56:20;;;;;;;7.60;3.90;;;7.10;99.90;;;;;;5068431;28;20029;-72
2021/10/01 04:58:46;;;;;;;8.10;3.50;;;7.00;99.90;;;;;;5071129;28;20033;-72
2021/10/01 05:01:11;;;;;;;7.75;3.28;;;7.00;99.90;;;;;;5062754;28;20037;-72
2021/10/01 05:03:37;;;;;;;8.50;4.78;;;7.00;99.90;;;;;;5058940;28;20025;-72
2021/10/01 05:06:03;;;;;;;6.85;3.88;;;7.00;99.90;;;;;;5054495;28;20111;-72
2021/10/01 05:08:29;;;;;;;9.88;5.15;;;7.00;99.90;;;;;;5052746;28;20029;-72
2021/10/01 05:10:55;;;;;;;8.60;3.70;;;7.00;99.90;;;;;;5053729;28;20021;-74
2021/10/01 05:13:20;;;;;;;6.90;3.25;;;7.10;99.90;;;;;;5052854;28;20028;-72
2021/10/01 05:15:46;;;;;;;14.25;4.20;;;7.00;99.90;;;;;;5053527;28;20040;-73
2021/10/01 05:18:14;;;;;;;10.50;3.22;;;7.10;99.90;;;;;;5052676;28;20060;-74
2021/10/01 05:20:40;;;;;;;7.15;2.50;;;7.10;99.90;;;;;;5052200;28;20524;-72
2021/10/01 05:23:06;;;;;;;8.82;3.30;;;7.00;99.90;;;;;;5053260;28;20108;-72
2021/10/01 05:25:31;;;;;;;10.18;3.05;;;7.00;99.90;;;;;;5053326;28;20025;-73
2021/10/01 05:27:57;;;;;;;9.15;3.63;;;7.00;99.90;;;;;;5052550;28;20105;-73
2021/10/01 05:30:23;;;;;;;8.20;2.78;;;7.00;99.90;;;;;;5053814;28;20024;-74
2021/10/01 05:32:48;;;;;;;7.35;3.10;;;6.90;99.90;;;;;;5053573;28;20094;-72
2021/10/01 05:35:15;;;;;;;5.55;2.95;;;7.10;99.90;;;;;;5053320;28;20104;-73
2021/10/01 05:37:40;;;;;;;6.95;3.17;;;7.10;99.90;;;;;;5053169;28;20025;-72
2021/10/01 05:40:07;;;;;;;5.85;2.92;;;7.10;99.90;;;;;;5051771;28;20067;-73
2021/10/01 05:42:33;;;;;;;4.53;2.80;;;7.10;99.90;;;;;;5052956;28;20025;-73
2021/10/01 05:44:58;;;;;;;6.07;3.47;;;7.10;99.90;;;;;;5053097;28;20021;-72
2021/10/01 05:47:24;;;;;;;7.13;2.85;;;7.30;99.90;;;;;;5053172;28;20021;-73
2021/10/01 05:49:50;;;;;;;9.65;2.83;;;7.40;99.90;;;;;;5052856;28;20029;-74
2021/10/01 05:54:48;;;;;;;7.75;2.75;;;7.40;99.90;;;;;;5052874;28;20385;-72
2021/10/01 05:57:15;;;;;;;7.38;3.20;;;7.40;99.90;;;;;;5053023;28;20048;-72
2021/10/01 05:59:42;;;;;;;6.47;2.75;;;7.50;99.90;;;;;;5052778;28;20401;-73
2021/10/01 06:02:13;;;;;;;4.90;3.45;;;7.50;99.90;;;;;;5053946;28;20495;-72
2021/10/01 06:04:40;;;;;;;6.15;3.25;;;7.60;99.90;;;;;;5058228;28;20032;-73
2021/10/01 06:07:06;;;;;;;10.07;2.72;;;7.80;99.90;;;;;;5061544;28;20046;-72
2021/10/01 06:09:31;;;;;;;5.13;2.35;;;7.80;99.90;;;;;;5055454;28;20596;-72
2021/10/01 06:11:57;;;;;;;8.35;3.03;;;8.00;99.90;;;;;;5053199;28;20013;-72
2021/10/01 06:14:24;;;;;;;8.20;2.78;;;8.00;99.90;;;;;;5052795;28;20103;-74
2021/10/01 06:16:52;;;;;;;4.18;2.55;;;8.10;99.90;;;;;;5052197;28;20083;-72
2021/10/01 06:19:18;;;;;;;9.23;2.88;;;8.20;99.90;;;;;;5054267;28;20071;-73
2021/10/01 06:21:44;;;;;;;4.82;3.03;;;8.20;99.90;;;;;;5053395;28;20115;-73
2021/10/01 06:24:10;;;;;;;7.38;2.78;;;8.20;99.90;;;;;;5053061;28;20059;-72
2021/10/01 06:26:36;;;;;;;3.35;2.60;;;8.20;99.90;;;;;;5053416;28;20024;-73
2021/10/01 06:29:02;;;;;;;7.07;3.10;;;8.30;99.90;;;;;;5053356;28;20025;-73
2021/10/01 06:31:28;;;;;;;7.32;2.90;;;8.30;99.90;;;;;;5051995;28;20052;-73
2021/10/01 06:33:53;;;;;;;7.85;3.30;;;8.40;99.90;;;;;;5052888;28;20017;-74
2021/10/01 06:36:23;;;;;;;5.68;2.70;;;8.50;99.90;;;;;;5052803;28;20028;-72
2021/10/01 06:38:50;;;;;;;5.53;3.15;;;8.50;99.90;;;;;;5051660;28;20025;-72
2021/10/01 06:41:16;;;;;;;10.38;3.35;;;8.60;99.90;;;;;;5053205;28;20028;-72
2021/10/01 06:43:43;;;;;;;7.45;2.53;;;8.70;99.90;;;;;;5055092;28;20037;-76
2021/10/01 06:46:23;;;;;;;7.75;2.83;;;8.70;99.90;;;;;;5055722;28;20025;-74
2021/10/01 06:51:28;;;;;;;8.25;3.97;;;8.90;99.90;;;;;;5052210;28;20052;-73
2021/10/01 07:35:51;;;;;;;4.95;2.83;;;10.10;99.90;;;;;;5052225;28;20100;-74
2021/10/01 08:21:39;;;;;;;8.13;3.33;;;12.20;99.90;;;;;;5055405;28;20476;-73
2021/10/01 08:24:04;;;;;;;4.13;3.13;;;12.30;99.90;;;;;;5055333;28;20533;-72
2021/10/01 08:26:30;;;;;;;7.53;3.33;;;12.40;99.90;;;;;;5059905;28;20033;-72
2021/10/01 08:28:56;;;;;;;8.23;3.33;;;12.50;99.90;;;;;;5070361;28;20040;-73
2021/10/01 08:31:25;;;;;;;11.27;4.20;;;12.60;99.90;;;;;;5066492;28;20146;-73
2021/10/01 08:33:50;;;;;;;11.32;3.17;;;12.60;99.90;;;;;;5063882;28;20031;-74
2021/10/01 08:36:18;;;;;;;8.82;3.58;;;12.80;99.90;;;;;;5059705;28;20021;-73
2021/10/01 08:38:44;;;;;;;4.63;3.15;;;12.90;99.90;;;;;;5055595;28;20067;-73
2021/10/01 08:41:12;;;;;;;6.32;2.42;;;13.00;99.90;;;;;;5055018;28;20108;-72
2021/10/01 08:43:40;;;;;;;5.90;3.38;;;13.10;99.90;;;;;;5054075;28;20025;-73
2021/10/01 08:46:06;;;;;;;7.82;3.75;;;13.10;99.90;;;;;;5054941;28;20025;-73
2021/10/01 08:48:32;;;;;;;6.10;3.67;;;13.20;99.90;;;;;;5053340;28;20544;-75
2021/10/01 08:50:59;;;;;;;4.07;3.00;;;13.30;99.90;;;;;;5054189;28;20155;-72
2021/10/01 08:53:25;;;;;;;11.23;4.18;;;13.50;99.90;;;;;;5052886;28;20057;-74
2021/10/01 08:55:50;;;;;;;4.70;2.25;;;13.60;99.90;;;;;;5053231;28;20048;-73
2021/10/01 08:58:20;;;;;;;6.80;2.42;;;13.60;99.90;;;;;;5054051;28;20519;-72
2021/10/01 09:00:47;;;;;;;6.82;2.90;;;13.70;99.90;;;;;;5054225;28;20115;-73
2021/10/01 09:03:13;;;;;;;6.30;2.75;;;13.80;99.90;;;;;;5054058;28;20071;-72
2021/10/01 09:05:38;;;;;;;13.20;2.88;;;13.90;99.90;;;;;;5053110;28;20579;-73
2021/10/01 09:08:17;;;;;;;5.80;3.10;;;14.00;99.90;;;;;;5053742;28;20112;-72
2021/10/01 09:10:59;;;;;;;10.98;2.85;;;14.10;99.90;;;;;;5052576;28;20043;-74
2021/10/01 09:13:25;;;;;;;5.03;3.40;;;14.30;99.90;;;;;;5076096;22;20499;-74
2021/10/01 09:15:59;;;;;;;5.15;2.65;;;14.30;99.90;;;;;;5063180;28;20099;-75
2021/10/01 09:18:30;;;;;;;10.43;3.47;;;14.50;99.90;;;;;;5063357;28;20029;-72
2021/10/01 09:21:14;;;;;;;5.15;3.00;;;14.50;99.90;;;;;;5061920;28;20024;-73
2021/10/01 09:23:43;;;;;;;6.47;3.42;;;14.60;99.90;;;;;;5063563;28;20056;-73
2021/10/01 09:26:11;;;;;;;7.25;2.58;;;14.80;99.90;;;;;;5063376;28;20021;-73
2021/10/01 09:28:56;;;;;;;5.65;2.90;;;14.90;99.90;;;;;;5063484;28;20083;-73
2021/10/01 09:31:42;;;;;;;7.50;2.58;;;15.00;99.90;;;;;;5060601;28;20029;-74
2021/10/01 09:34:11;;;;;;;5.35;2.45;;;15.10;99.90;;;;;;5057716;28;20473;-73
2021/10/01 09:36:38;;;;;;;13.98;2.40;;;15.20;99.90;;;;;;5058073;28;20036;-72
2021/10/01 09:39:05;;;;;;;8.70;2.85;;;15.30;99.90;;;;;;5057053;28;20057;-73
2021/10/01 09:41:36;;;;;;;10.85;3.53;;;15.40;99.90;;;;;;5057178;28;20413;-74
2021/10/01 09:44:06;;;;;;;4.00;2.70;;;15.50;99.90;;;;;;5057276;28;20396;-73
2021/10/01 09:46:39;;;;;;;6.53;2.72;;;15.60;99.90;;;;;;5059844;28;20021;-74
2021/10/01 09:49:07;;;;;;;6.15;2.90;;;15.70;99.90;;;;;;5059894;28;20039;-73
2021/10/01 09:51:35;;;;;;;3.25;2.40;;;15.80;99.90;;;;;;5059092;28;20038;-72
2021/10/01 09:54:12;;;;;;;4.47;2.63;;;15.90;99.90;;;;;;5059349;28;20047;-74
2021/10/01 09:56:38;;;;;;;6.05;2.65;;;15.90;99.90;;;;;;5059509;28;20549;-73
2021/10/01 09:59:18;;;;;;;4.38;2.08;;;16.00;99.90;;;;;;5058511;28;20053;-74
2021/10/01 10:02:02;;;;;;;5.53;2.55;;;16.00;99.90;;;;;;5056750;28;20021;-74
2021/10/01 10:04:30;;;;;;;5.85;2.10;;;16.10;99.90;;;;;;5059000;28;20029;-74
2021/10/01 10:06:55;;;;;;;3.63;2.00;;;16.30;99.90;;;;;;5059719;28;20029;-73
2021/10/01 10:09:33;;;;;;;5.15;1.58;;;16.40;99.90;;;;;;5059192;28;20039;-73
2021/10/01 10:11:58;;;;;;;4.55;1.88;;;16.50;99.90;;;;;;5074606;28;20031;-72
2021/10/01 10:14:24;;;;;;;3.35;1.73;;;16.50;99.90;;;;;;5071928;28;20064;-74
2021/10/01 10:16:50;;;;;;;2.30;1.58;;;16.60;99.90;;;;;;5067013;28;20028;-74
2021/10/01 10:19:20;;;;;;;3.70;1.73;;;16.70;99.90;;;;;;5070291;28;20021;-74
2021/10/01 10:21:47;;;;;;;4.33;1.50;;;16.80;99.90;;;;;;5064405;28;20037;-73
2021/10/01 10:24:13;;;;;;;2.80;1.48;;;16.80;99.90;;;;;;5063060;28;20021;-74
2021/10/01 10:26:39;;;;;;;3.97;1.75;;;17.10;99.90;;;;;;5066737;28;20469;-73
2021/10/01 10:29:08;;;;;;;4.05;1.80;;;17.20;99.90;;;;;;5070052;28;20032;-74
2021/10/01 10:31:36;;;;;;;4.00;1.52;;;17.30;99.90;;;;;;5073027;28;20031;-74
2021/10/01 10:34:03;;;;;;;3.20;1.30;;;17.30;99.90;;;;;;5072008;28;20104;-72
2021/10/01 10:36:37;;;;;;;3.13;2.33;;;17.40;99.90;;;;;;5070577;28;20060;-74
2021/10/01 10:39:16;;;;;;;3.15;1.30;;;17.50;99.90;;;;;;5069825;28;20098;-73
2021/10/01 10:41:47;;;;;;;3.90;1.20;;;17.60;99.90;;;;;;5071232;28;20035;-72
2021/10/01 10:44:15;;;;;;;1.95;0.93;;;17.60;99.90;;;;;;5068336;28;20104;-73
2021/10/01 10:46:43;;;;;;;1.08;0.68;;;17.70;99.90;;;;;;5072190;28;20013;-73
2021/10/01 10:49:16;;;;;;;1.48;1.10;;;17.70;99.90;;;;;;5069313;28;20041;-73
2021/10/01 10:52:23;;;;;;;1.77;1.02;;;17.70;99.90;;;;;;5072085;28;20025;-74
2021/10/01 10:55:09;;;;;;;4.47;1.30;;;17.90;99.90;;;;;;5072920;28;20028;-74
2021/10/01 10:57:37;;;;;;;6.78;0.98;;;18.00;99.90;;;;;;5071642;28;20025;-73
2021/10/01 11:00:29;;;;;;;1.83;1.27;;;18.10;99.90;;;;;;5072609;28;20043;-73
2021/10/01 11:03:18;;;;;;;1.55;1.02;;;18.20;99.90;;;;;;5074743;28;20037;-73
2021/10/01 11:05:44;;;;;;;5.68;0.70;;;18.50;99.90;;;;;;5071154;28;20040;-73
2021/10/01 11:08:29;;;;;;;2.00;1.23;;;18.50;99.90;;;;;;5072215;28;20496;-75
2021/10/01 11:10:54;;;;;;;2.40;1.00;;;18.60;99.90;;;;;;5071965;28;20534;-73
2021/10/01 11:13:24;;;;;;;0.70;0.60;;;18.60;99.50;;;;;;5075535;28;20025;-73
2021/10/01 11:16:08;;;;;;;2.08;0.90;;;18.60;99.60;;;;;;5076695;28;20017;-74
2021/10/01 11:18:36;;;;;;;1.75;1.05;;;18.70;99.10;;;;;;5075237;28;20071;-74
2021/10/01 11:21:27;;;;;;;3.15;0.90;;;18.70;99.20;;;;;;5077185;28;20029;-73
2021/10/01 11:24:10;;;;;;;4.30;1.05;;;18.90;99.00;;;;;;5064795;28;20060;-73
2021/10/01 11:26:48;;;;;;;1.52;0.80;;;19.00;98.00;;;;;;5067526;28;20029;-73
2021/10/01 11:29:27;;;;;;;2.58;0.90;;;19.10;98.30;;;;;;5074521;28;20056;-72
2021/10/01 11:32:07;;;;;;;1.95;1.00;;;19.10;97.00;;;;;;5077604;28;20021;-73
2021/10/01 11:34:48;;;;;;;1.05;0.55;;;19.10;97.20;;;;;;5075511;28;20036;-73
2021/10/01 11:37:29;;;;;;;1.25;0.73;;;19.30;96.90;;;;;;5075527;28;20013;-74
2021/10/01 11:39:58;;;;;;;2.03;0.63;;;19.40;96.60;;;;;;5074548;28;20439;-73
2021/10/01 11:42:25;;;;;;;2.35;0.70;;;19.50;95.80;;;;;;5075389;28;20084;-74
2021/10/01 11:44:51;;;;;;;3.38;0.93;;;19.70;95.20;;;;;;5075067;28;20056;-74
2021/10/01 11:47:17;;;;;;;2.28;0.85;;;19.60;94.60;;;;;;5075340;28;20036;-74
2021/10/01 11:49:51;;;;;;;1.25;0.60;;;19.60;95.00;;;;;;5074330;28;20039;-74
2021/10/01 11:52:17;;;;;;;1.17;0.50;;;19.70;94.60;;;;;;5074729;28;20033;-73
2021/10/01 11:54:58;;;;;;;2.55;0.80;;;19.80;94.20;;;;;;5075686;28;20051;-73
2021/10/01 11:57:34;;;;;;;1.60;0.77;;;19.90;93.50;;;;;;5077888;28;20017;-74
2021/10/01 12:00:02;;;;;;;2.53;1.38;;;19.90;93.00;;;;;;5073731;28;20457;-74
2021/10/01 12:02:45;;;;;;;2.30;1.10;;;19.90;93.00;;;;;;5074412;28;20055;-74
2021/10/01 12:05:32;;;;;;;1.10;0.90;;;19.90;93.20;;;;;;5074930;28;20048;-74
2021/10/01 12:08:10;;;;;;;1.80;0.82;;;20.00;93.20;;;;;;5073026;28;20017;-72
2021/10/01 12:10:35;;;;;;;3.42;1.23;;;20.10;92.00;;;;;;5074085;28;20021;-74
2021/10/01 12:13:13;;;;;;;2.55;0.93;;;20.10;92.10;;;;;;5074681;28;20017;-73
2021/10/01 12:15:54;;;;;;;1.58;0.70;;;20.20;91.80;;;;;;5074906;28;20033;-74
2021/10/01 12:18:38;;;;;;;0.90;0.60;;;20.20;91.30;;;;;;5073682;28;20584;-73
2021/10/01 12:21:03;;;;;;;0.80;0.50;;;20.30;91.30;;;;;;5074291;28;20048;-74
2021/10/01 12:23:35;;;;;;;2.85;0.80;;;20.30;91.10;;;;;;5076090;28;20040;-73
2021/10/01 12:26:28;;;;;;;1.23;0.80;;;20.40;90.60;;;;;;5075682;28;20031;-72
2021/10/01 12:29:04;;;;;;;1.20;0.60;;;20.30;90.20;;;;;;5074893;28;20077;-73
2021/10/01 12:31:42;;;;;;;2.92;0.90;;;20.40;88.30;;;;;;5072703;28;20029;-73
2021/10/01 12:34:21;;;;;;;0.90;0.65;;;20.40;90.00;;;;;;5078479;28;20084;-73
2021/10/01 12:36:54;;;;;;;1.13;0.68;;;20.60;87.30;;;;;;5078255;28;20112;-73
2021/10/01 12:39:23;;;;;;;1.10;0.68;;;20.60;85.60;;;;;;5075838;28;20055;-74
2021/10/01 12:42:01;;;;;;;1.20;0.70;;;20.70;86.40;;;;;;5074231;28;20021;-74
2021/10/01 12:44:28;;;;;;;1.52;0.70;;;20.60;86.10;;;;;;5075038;28;20088;-73
2021/10/01 12:46:56;;;;;;;3.70;3.35;;;20.70;86.30;;;;;;5069825;28;20025;-73
2021/10/01 12:49:30;;;;;;;3.78;1.52;;;20.60;86.40;;;;;;5071748;28;20037;-75
2021/10/01 12:52:26;;;;;;;2.15;1.00;;;20.60;85.70;;;;;;5075345;28;20012;-73
2021/10/01 12:54:55;;;;;;;1.67;0.73;;;20.60;85.30;;;;;;5067959;28;20512;-73
2021/10/01 12:57:26;;;;;;;1.60;0.70;;;20.70;86.10;;;;;;5076447;28;20028;-73
2021/10/01 12:59:53;;;;;;;1.08;0.70;;;20.60;85.90;;;;;;5074780;28;20411;-73
2021/10/01 13:02:43;;;;;;;0.98;0.68;;;20.70;86.80;;;;;;5074922;28;20021;-74
2021/10/01 13:05:27;;;;;;;2.70;0.98;;;20.80;86.90;;;;;;5074390;28;20018;-74
2021/10/01 13:08:09;;;;;;;1.77;0.90;;;20.80;87.10;;;;;;5076340;28;20092;-74
2021/10/01 13:10:50;;;;;;;3.95;0.73;;;20.80;86.70;;;;;;5074165;28;20035;-73
2021/10/01 13:13:19;;;;;;;;;;;20.80;85.90;;;;;;5072983;28;20021;-73
2021/10/01 13:15:53;;;;;;;2.15;0.95;;;20.80;85.90;;;;;;5070770;28;19923;-74
2021/10/01 13:18:24;;;;;;;0.80;0.80;;;20.90;84.20;;;;;;5075749;28;20076;-75
2021/10/01 13:21:01;;;;;;;1.65;0.80;;;20.90;84.60;;;;;;5073579;28;20116;-74
2021/10/01 13:23:41;;;;;;;1.90;1.48;;;20.90;85.70;;;;;;5070387;28;20028;-74
2021/10/01 13:26:44;;;;;;;4.70;3.80;;;21.00;84.10;;;;;;5067463;28;20031;-74
2021/10/01 13:29:11;;;;;;;2.85;1.63;;;21.00;84.20;;;;;;5059650;28;20037;-74
2021/10/01 13:31:47;;;;;;;1.83;0.73;;;20.90;84.40;;;;;;5067464;28;20420;-74
2021/10/01 13:34:14;;;;;;;2.75;0.88;;;20.90;83.70;;;;;;5069799;28;20021;-73
2021/10/01 13:36:40;;;;;;;3.17;1.17;;;20.90;83.60;;;;;;5074160;28;20088;-73
2021/10/01 13:39:06;;;;;;;1.23;0.80;;;20.90;82.90;;;;;;5072881;28;20373;-73
2021/10/01 13:41:33;;;;;;;0.70;0.70;;;20.80;84.10;;;;;;5075127;28;20040;-74
2021/10/01 13:43:59;;;;;;;0.90;0.75;;;20.90;85.20;;;;;;5072026;28;20029;-72
2021/10/01 13:46:25;;;;;;;2.65;1.05;;;20.80;86.20;;;;;;5068743;28;20024;-73
2021/10/01 13:48:52;;;;;;;1.35;0.90;;;20.90;87.80;;;;;;5067409;28;20076;-73
2021/10/01 13:51:18;;;;;;;2.20;0.98;;;20.90;86.40;;;;;;5067209;28;20017;-73
2021/10/01 13:53:45;;;;;;;1.30;0.95;;;20.90;87.60;;;;;;5072401;28;20017;-73
2021/10/01 13:56:10;;;;;;;1.60;1.02;;;20.90;88.20;;;;;;5075715;28;20043;-73
2021/10/01 13:58:36;;;;;;;1.08;0.98;;;20.90;89.00;;;;;;5075220;28;20025;-73
2021/10/01 14:01:03;;;;;;;1.38;1.27;;;21.00;88.80;;;;;;5075482;28;20009;-74
2021/10/01 14:03:29;;;;;;;2.08;1.40;;;20.90;89.50;;;;;;5073070;28;20028;-73
2021/10/01 14:05:56;;;;;;;3.88;1.50;;;21.20;89.60;;;;;;5074303;28;20072;-74
2021/10/01 14:08:22;;;;;;;2.28;1.02;;;21.20;90.20;;;;;;5074064;28;20051;-74
2021/10/01 14:10:48;;;;;;;2.80;1.30;;;21.00;90.70;;;;;;5073792;28;20024;-72
2021/10/01 14:13:15;;;;;;;1.67;1.45;;;21.00;90.90;;;;;;5074026;28;20024;-73
2021/10/01 14:15:43;;;;;;;2.58;1.38;;;21.00;91.30;;;;;;5075089;28;20017;-73
2021/10/01 14:18:10;;;;;;;3.40;1.50;;;20.90;91.50;;;;;;5074232;28;20005;-73
2021/10/01 14:20:37;;;;;;;1.70;1.30;;;21.00;91.60;;;;;;5073616;28;20069;-74
2021/10/01 14:23:03;;;;;;;2.00;1.73;;;20.90;91.70;;;;;;5075426;28;20036;-73
2021/10/01 14:25:29;;;;;;;3.10;1.70;;;20.90;91.90;;;;;;5075432;28;20037;-73
2021/10/01 14:27:59;;;;;;;1.52;1.20;;;20.90;92.00;;;;;;5075537;28;20029;-74
2021/10/01 14:30:28;;;;;;;1.40;1.20;;;20.90;92.20;;;;;;5074746;28;20059;-72
2021/10/01 14:32:55;;;;;;;2.33;1.80;;;21.00;92.20;;;;;;5075187;28;20081;-73
2021/10/01 14:35:22;;;;;;;2.08;1.70;;;20.90;92.40;;;;;;5075076;28;20013;-73
2021/10/01 14:37:48;;;;;;;2.47;1.58;;;21.00;92.50;;;;;;5075496;28;20040;-72